Flight Track Log - Related Links

Times and Time Zones

All times are in EDT time to prevent confusion due to time zone crossing. See the UCA3597 flight status page for this flight to view local times or setup timezone preferences in your user account.

Time Position Orientation Groundspeed Altitude Reporting Facility
EDT Latitude Longitude Course Direction KTS MPH feet Rate Location/Type
Thu 05:55:00 PM 40.1026 -76.9529 19° North  Level Estimated
Thu 05:56:00 PM 40.1667 -76.9242 19° North  Level Estimated
Thu 05:57:00 PM 40.2308 -76.8955 19° North  Level Estimated
Thu 05:58:00 PM 40.2949 -76.8667 19° North  Level Estimated
Thu 05:59:00 PM 40.3403 -76.8463 19° North  Level Estimated
Thu 06:00:00 PM 40.3857 -76.8258 19° North  Level Estimated
Thu 06:01:00 PM 40.4311 -76.8054 19° North  Level Estimated
Thu 06:02:00 PM 40.4765 -76.7849 19° North  Level Estimated
Thu 06:03:00 PM 40.5218 -76.7643 19° North  Level Estimated
Thu 06:04:00 PM 40.5672 -76.7438 19° North  Level Estimated
Thu 06:05:00 PM 40.6126 -76.7232 19° North  Level Estimated
Thu 06:06:00 PM 40.6580 -76.7026 19° North  Level Estimated
Thu 06:07:00 PM 40.7033 -76.6819 19° North  Level Estimated
Thu 06:08:00 PM 40.7487 -76.6612 19° North  Level Estimated
Thu 06:09:00 PM 40.7940 -76.6405 19° North  Level Estimated
Thu 06:10:00 PM 40.8394 -76.6198 19° North  Level Estimated
Thu 06:11:00 PM 40.8848 -76.5991 19° North  Level Estimated
Thu 06:12:00 PM 40.9301 -76.5783 19° North  Level Estimated
Thu 06:13:00 PM 40.9754 -76.5575 19° North  Level Estimated
Thu 06:14:00 PM 41.0208 -76.5366 19° North  Level Estimated
Thu 06:15:00 PM 41.0661 -76.5158 19° North  Level Estimated
Thu 06:16:00 PM 41.1115 -76.4949 19° North  Level Estimated
Thu 06:17:00 PM 41.1568 -76.4739 19° North  Level Estimated
Thu 06:18:00 PM 41.2021 -76.4530 19° North  Level Estimated
Thu 06:19:00 PM 41.2474 -76.4320 19° North  Level Estimated
Thu 06:20:00 PM 41.2928 -76.4110 19° North  Level Estimated
Thu 06:21:00 PM 41.3381 -76.3900 19° North  Level Estimated
Thu 06:22:00 PM 41.3834 -76.3689 19° North  Level Estimated
Thu 06:23:00 PM 41.4287 -76.3478 19° North  Level Estimated
Thu 06:24:00 PM 41.4740 -76.3267 19° North  Level Estimated
Thu 06:25:00 PM 41.5193 -76.3055 19° North  Level Estimated
Thu 06:26:00 PM 41.5646 -76.2843 19° North  Level Estimated
Thu 06:27:00 PM 41.6099 -76.2631 19° North  Level Estimated
Thu 06:28:00 PM 41.6552 -76.2418 19° North  Level Estimated
Thu 06:29:00 PM 41.7004 -76.2206 19° North  Level Estimated
Thu 06:30:00 PM 41.7457 -76.1992 19° North  Level Estimated
Thu 06:31:00 PM 41.7910 -76.1779 19° North  Level Estimated
Thu 06:32:00 PM 41.8363 -76.1565 19° North  Level Estimated
Thu 06:33:00 PM 41.8815 -76.1351 19° North  Level Estimated
Thu 06:34:00 PM 41.9268 -76.1137 19° North  Level Estimated
Thu 06:35:00 PM 41.9720 -76.0922 19° North  Level Estimated
Thu 06:36:00 PM 42.0173 -76.0707 19° North  Level Estimated
Thu 06:37:00 PM 42.0625 -76.0492 19° North  Level Estimated
Thu 06:38:00 PM 42.1078 -76.0277 19° North  Level Estimated
Thu 06:39:00 PM 42.1530 -76.0061 19° North  Level Estimated
Thu 06:40:00 PM 42.1983 -75.9845 19° North  Level Estimated
Thu 06:41:00 PM 42.2084 -75.9796 20° North  Level Estimated
Thu 06:42:00 PM 42.2084 -75.9796 35° Northeast  Level Estimated
Thu 06:43:00 PM 42.2084 -75.9796 35° Northeast  Level Estimated
Thu 06:44:00 PM 42.2084 -75.9796 35° Northeast  Level Estimated
Thu 06:45:00 PM 42.2084 -75.9796 35° Northeast  Level Estimated
Thu 06:46:00 PM 42.2084 -75.9796 35° Northeast  Level Estimated
Thu 06:47:00 PM 42.2084 -75.9796 35° Northeast  Level Estimated
Thu 06:48:00 PM 42.2084 -75.9796 35° Northeast  Level Estimated
Thu 06:49:00 PM 42.2084 -75.9796 35° Northeast  Level Estimated

Login

Don't have an account? Register now (free) for customized features, flight alerts, and more!